createdAt,value
2018-07-13T00:02:42.076Z,9.90
2018-07-13T00:06:06.515Z,12.43
2018-07-13T00:09:30.979Z,14.13
2018-07-13T00:12:55.399Z,8.93
2018-07-13T00:16:19.566Z,8.18
2018-07-13T00:19:44.044Z,9.08
2018-07-13T00:23:08.502Z,9.43
2018-07-13T00:26:32.964Z,13.62
2018-07-13T00:29:57.442Z,11.85
2018-07-13T00:33:21.863Z,14.80
2018-07-13T00:36:46.289Z,12.33
2018-07-13T00:40:10.747Z,10.38
2018-07-13T00:43:35.186Z,11.05
2018-07-13T00:46:59.636Z,10.05
2018-07-13T00:50:24.098Z,9.98
2018-07-13T00:53:48.617Z,12.75
2018-07-13T00:57:13.017Z,10.93
2018-07-13T01:00:37.440Z,14.65
2018-07-13T01:04:01.871Z,9.95
2018-07-13T01:07:26.305Z,11.60
2018-07-13T01:10:50.748Z,14.23
2018-07-13T01:14:15.164Z,12.47
2018-07-13T01:17:39.582Z,13.22
2018-07-13T01:21:04.075Z,16.93
2018-07-13T01:24:28.516Z,13.58
2018-07-13T01:27:52.959Z,15.88
2018-07-13T01:31:17.391Z,13.25
2018-07-13T01:34:41.827Z,13.70
2018-07-13T01:38:06.330Z,16.85
2018-07-13T01:41:30.934Z,19.92
2018-07-13T01:44:55.344Z,12.63
2018-07-13T01:48:19.758Z,11.70
2018-07-13T01:51:44.186Z,16.90
2018-07-13T01:55:08.616Z,17.00
2018-07-13T01:58:33.050Z,16.62
2018-07-13T02:01:57.468Z,13.48
2018-07-13T02:13:27.901Z,14.90
2018-07-13T02:20:52.617Z,17.17
2018-07-13T02:24:33.225Z,15.38
2018-07-13T02:28:20.249Z,17.23
2018-07-13T02:32:11.243Z,19.73
2018-07-13T02:36:00.536Z,15.37
2018-07-13T02:39:45.917Z,18.57
2018-07-13T02:48:38.246Z,17.15
2018-07-13T02:52:22.860Z,18.60
2018-07-13T02:56:17.782Z,15.40
2018-07-13T03:00:01.188Z,16.93
2018-07-13T03:03:41.081Z,19.40
2018-07-13T03:07:16.327Z,17.10
2018-07-13T03:10:58.250Z,17.07
2018-07-13T03:14:48.088Z,19.13
2018-07-13T03:18:27.737Z,18.60
2018-07-13T03:22:16.246Z,22.03
2018-07-13T03:25:57.293Z,22.63
2018-07-13T03:29:50.786Z,18.07
2018-07-13T03:33:21.941Z,16.87
2018-07-13T03:37:04.048Z,23.67
2018-07-13T03:40:49.780Z,17.67
2018-07-13T03:44:43.161Z,20.47
2018-07-13T03:48:58.602Z,18.90
2018-07-13T03:54:11.067Z,16.47
2018-07-13T03:57:57.217Z,22.27
2018-07-13T04:09:35.580Z,22.03
2018-07-13T04:13:19.426Z,16.40
2018-07-13T04:17:05.770Z,18.20
2018-07-13T04:20:51.973Z,19.67
2018-07-13T04:24:34.490Z,20.57
2018-07-13T04:32:14.990Z,18.10
2018-07-13T04:35:56.593Z,23.30
2018-07-13T04:39:41.462Z,23.27
2018-07-13T04:44:27.313Z,19.47
2018-07-13T04:48:06.367Z,21.40
2018-07-13T04:51:31.016Z,22.83
2018-07-13T04:54:55.525Z,19.70
2018-07-13T04:58:19.802Z,23.43
2018-07-13T05:01:44.266Z,22.20
2018-07-13T05:05:09.200Z,22.22
2018-07-13T05:08:33.652Z,22.83
2018-07-13T05:11:58.064Z,22.77
2018-07-13T05:15:22.558Z,24.77
2018-07-13T05:18:46.985Z,19.70
2018-07-13T05:22:11.517Z,20.40
2018-07-13T05:25:36.556Z,25.32
2018-07-13T05:29:01.153Z,26.12
2018-07-13T05:32:25.735Z,30.48
2018-07-13T05:35:50.355Z,23.00
2018-07-13T05:39:14.866Z,29.02
2018-07-13T05:42:39.362Z,23.92
2018-07-13T05:46:03.928Z,22.45
2018-07-13T05:49:29.247Z,29.80
2018-07-13T05:53:18.859Z,26.52
2018-07-13T05:57:02.509Z,28.77
2018-07-13T06:00:27.111Z,29.15
2018-07-13T06:03:51.608Z,32.45
2018-07-13T06:07:16.085Z,37.98
2018-07-13T06:10:40.647Z,37.20
2018-07-13T06:14:05.354Z,38.40
2018-07-13T06:17:29.852Z,34.55
2018-07-13T06:20:54.358Z,30.80
2018-07-13T06:24:18.821Z,34.45
2018-07-13T06:27:43.273Z,35.08
2018-07-13T06:31:07.849Z,41.88
2018-07-13T06:34:32.336Z,30.77
2018-07-13T06:37:56.891Z,35.50
2018-07-13T06:41:21.437Z,29.35
2018-07-13T06:44:46.009Z,33.50
2018-07-13T06:48:11.093Z,32.03
2018-07-13T06:51:35.595Z,32.28
2018-07-13T06:55:00.078Z,32.42
2018-07-13T06:58:41.405Z,29.10
2018-07-13T07:02:05.879Z,35.48
2018-07-13T07:06:36.180Z,32.53
2018-07-13T07:10:00.695Z,24.43
2018-07-13T07:13:33.437Z,28.92
2018-07-13T07:16:57.895Z,33.90
2018-07-13T07:20:22.352Z,23.25
2018-07-13T07:23:46.826Z,29.00
2018-07-13T07:27:11.305Z,26.93
2018-07-13T07:30:35.879Z,28.62
2018-07-13T07:34:00.337Z,26.90
2018-07-13T07:37:24.986Z,23.50
2018-07-13T07:40:49.872Z,35.63
2018-07-13T07:44:14.363Z,27.98
2018-07-13T07:47:38.859Z,30.25
2018-07-13T07:51:03.322Z,29.40
2018-07-13T07:54:27.763Z,23.75
2018-07-13T07:57:52.232Z,25.20
2018-07-13T08:01:16.686Z,20.55
2018-07-13T08:04:41.215Z,24.27
2018-07-13T08:08:05.804Z,14.78
2018-07-13T08:11:30.200Z,12.98
2018-07-13T08:14:54.657Z,21.90
2018-07-13T08:18:19.106Z,17.80
2018-07-13T08:21:45.351Z,15.40
2018-07-13T08:25:14.574Z,10.48
2018-07-13T08:28:39.099Z,15.95
2018-07-13T08:32:03.630Z,13.20
2018-07-13T08:35:28.062Z,13.38
2018-07-13T08:38:52.502Z,17.32
2018-07-13T08:42:16.938Z,23.50
2018-07-13T08:45:41.095Z,12.03
2018-07-13T08:49:05.659Z,12.50
2018-07-13T08:52:30.655Z,16.93
2018-07-13T08:55:55.111Z,14.80
2018-07-13T08:59:19.612Z,16.95
2018-07-13T09:02:44.095Z,12.03
2018-07-13T09:06:08.640Z,10.70
2018-07-13T09:09:33.080Z,8.25
2018-07-13T09:12:57.626Z,11.00
2018-07-13T09:16:22.090Z,15.10
2018-07-13T09:19:46.656Z,10.00
2018-07-13T09:23:11.094Z,9.25
2018-07-13T09:26:35.666Z,9.20
2018-07-13T09:30:00.155Z,8.25
2018-07-13T09:33:24.630Z,7.37
2018-07-13T09:36:49.128Z,8.13
2018-07-13T09:40:13.598Z,6.92
2018-07-13T09:43:38.047Z,11.83
2018-07-13T09:47:02.761Z,10.48
2018-07-13T09:50:27.073Z,7.62
2018-07-13T09:53:51.621Z,9.33
2018-07-13T09:57:16.039Z,8.70
2018-07-13T10:01:48.323Z,9.40
2018-07-13T10:05:12.846Z,6.80
2018-07-13T10:08:37.559Z,9.03
2018-07-13T10:12:02.016Z,7.10
2018-07-13T10:15:26.543Z,5.22
2018-07-13T10:18:51.053Z,6.20
2018-07-13T10:22:19.383Z,5.25
2018-07-13T10:25:52.496Z,4.92
2018-07-13T10:29:22.981Z,5.17
2018-07-13T10:32:47.434Z,3.80
2018-07-13T10:36:17.068Z,8.10
2018-07-13T10:39:41.516Z,5.45
2018-07-13T10:43:07.945Z,6.67
2018-07-13T10:46:32.470Z,3.52
2018-07-13T10:49:56.908Z,7.05
2018-07-13T10:53:21.368Z,7.83
2018-07-13T10:56:45.876Z,4.78
2018-07-13T11:00:10.353Z,4.33
2018-07-13T11:03:35.060Z,3.83
2018-07-13T11:06:59.472Z,4.08
2018-07-13T11:10:23.957Z,3.50
2018-07-13T11:13:49.307Z,5.28
2018-07-13T11:17:13.785Z,4.20
2018-07-13T11:20:38.260Z,4.42
2018-07-13T11:24:02.831Z,3.98
2018-07-13T11:27:27.382Z,4.10
2018-07-13T11:30:51.827Z,3.80
2018-07-13T11:34:16.408Z,3.37
2018-07-13T11:37:40.857Z,3.10
2018-07-13T11:41:05.359Z,4.03
2018-07-13T11:44:29.810Z,5.75
2018-07-13T11:47:54.289Z,3.12
2018-07-13T11:51:18.754Z,3.75
2018-07-13T11:54:43.202Z,2.52
2018-07-13T11:58:07.920Z,3.12
2018-07-13T12:01:32.410Z,3.08
2018-07-13T12:04:56.868Z,3.25
2018-07-13T12:08:21.334Z,2.75
2018-07-13T12:11:45.908Z,3.35
2018-07-13T12:15:10.398Z,2.65
2018-07-13T12:18:34.844Z,6.00
2018-07-13T12:21:59.318Z,4.87
2018-07-13T12:25:23.870Z,3.83
2018-07-13T12:28:48.322Z,3.65
2018-07-13T12:32:12.771Z,9.85
2018-07-13T12:35:37.262Z,3.10
2018-07-13T12:39:01.727Z,6.08
2018-07-13T12:42:26.490Z,5.53
2018-07-13T12:45:50.931Z,3.90
2018-07-13T12:49:15.547Z,7.15
2018-07-13T12:52:39.994Z,8.58
2018-07-13T12:56:04.514Z,4.30
2018-07-13T12:59:29.120Z,3.40
2018-07-13T13:02:53.549Z,2.75
2018-07-13T13:06:18.074Z,3.90
2018-07-13T13:09:43.327Z,3.47
2018-07-13T13:13:07.573Z,5.10
2018-07-13T13:16:32.068Z,3.55
2018-07-13T13:19:56.598Z,4.47
2018-07-13T13:23:21.093Z,3.52
2018-07-13T13:26:45.611Z,4.03
2018-07-13T13:30:10.108Z,3.70
2018-07-13T13:33:34.631Z,3.95
2018-07-13T13:36:59.054Z,7.30
2018-07-13T13:40:23.530Z,3.70
2018-07-13T13:43:47.936Z,4.67
2018-07-13T13:47:12.336Z,4.87
2018-07-13T13:50:36.719Z,5.62
2018-07-13T13:54:01.167Z,4.17
2018-07-13T13:57:25.613Z,4.12
2018-07-13T14:00:50.115Z,4.25
2018-07-13T14:04:14.567Z,6.12
2018-07-13T14:07:38.978Z,3.75
2018-07-13T14:11:03.415Z,4.58
2018-07-13T14:14:27.882Z,6.03
2018-07-13T14:17:52.314Z,4.53
2018-07-13T14:21:16.754Z,4.22
2018-07-13T14:24:41.154Z,3.58
2018-07-13T14:28:05.775Z,3.37
2018-07-13T14:31:30.222Z,8.85
2018-07-13T14:34:54.638Z,3.95
2018-07-13T14:38:19.056Z,4.50
2018-07-13T14:41:43.491Z,4.08
2018-07-13T14:45:07.932Z,6.60
2018-07-13T14:48:32.353Z,4.58
2018-07-13T14:51:56.782Z,6.20
2018-07-13T14:55:21.234Z,4.08
2018-07-13T14:58:45.707Z,7.37
2018-07-13T15:02:10.144Z,3.87
2018-07-13T15:05:34.629Z,3.22
2018-07-13T15:08:59.031Z,2.98
2018-07-13T15:12:23.497Z,3.77
2018-07-13T15:15:47.965Z,3.37
2018-07-13T15:19:12.449Z,7.00
2018-07-13T15:22:36.883Z,3.85
2018-07-13T15:26:01.329Z,6.33
2018-07-13T15:29:25.809Z,5.53
2018-07-13T15:32:50.216Z,7.83
2018-07-13T15:36:14.732Z,16.82
2018-07-13T15:39:39.167Z,11.85
2018-07-13T15:43:03.620Z,10.08
2018-07-13T15:46:28.082Z,4.30
2018-07-13T15:49:52.510Z,4.33
2018-07-13T15:53:17.014Z,4.67
2018-07-13T15:56:41.475Z,3.98
2018-07-13T16:00:05.995Z,4.92
2018-07-13T16:03:37.046Z,12.65
2018-07-13T16:07:01.989Z,5.35
2018-07-13T16:10:26.425Z,3.52
2018-07-13T16:13:51.032Z,3.72
2018-07-13T16:17:15.804Z,4.17
2018-07-13T16:20:40.393Z,5.65
2018-07-13T16:24:04.883Z,4.83
2018-07-13T16:27:29.336Z,5.30
2018-07-13T16:30:53.796Z,5.25
2018-07-13T16:34:18.205Z,4.87
2018-07-13T16:37:42.622Z,6.72
2018-07-13T16:41:07.212Z,8.85
2018-07-13T16:44:31.634Z,5.87
2018-07-13T16:47:56.075Z,5.25
2018-07-13T16:51:20.524Z,4.25
2018-07-13T16:54:44.973Z,4.12
2018-07-13T16:58:09.405Z,7.05
2018-07-13T17:01:33.902Z,6.05
2018-07-13T17:04:58.426Z,4.50
2018-07-13T17:08:22.866Z,8.70
2018-07-13T17:11:47.909Z,5.00
2018-07-13T17:15:12.454Z,5.70
2018-07-13T17:18:37.444Z,5.45
2018-07-13T17:22:02.738Z,5.17
2018-07-13T17:25:27.177Z,6.30
2018-07-13T17:28:51.765Z,5.67
2018-07-13T17:32:16.227Z,7.60
2018-07-13T17:35:40.658Z,4.55
2018-07-13T17:39:06.830Z,5.03
2018-07-13T17:42:32.699Z,15.53
2018-07-13T17:45:57.787Z,12.20
2018-07-13T17:49:23.115Z,7.83
2018-07-13T17:52:48.108Z,25.02
2018-07-13T17:56:12.762Z,6.67
2018-07-13T17:59:37.772Z,12.82
2018-07-13T18:03:02.489Z,39.80
2018-07-13T18:06:27.555Z,15.28
2018-07-13T18:09:52.283Z,33.63
2018-07-13T18:13:17.487Z,66.20
2018-07-13T18:16:42.457Z,92.10
2018-07-13T18:20:07.047Z,34.23
2018-07-13T18:23:31.757Z,25.68
2018-07-13T18:26:56.771Z,48.42
2018-07-13T18:30:21.828Z,124.70
2018-07-13T18:33:47.329Z,100.25
2018-07-13T18:37:12.614Z,65.52
2018-07-13T18:40:38.642Z,40.98
2018-07-13T18:44:03.110Z,26.68
2018-07-13T18:47:27.684Z,11.75
2018-07-13T18:50:52.456Z,8.93
2018-07-13T18:54:17.299Z,8.00
2018-07-13T18:57:42.143Z,6.95
2018-07-13T19:01:06.629Z,5.80
2018-07-13T19:04:32.163Z,7.08
2018-07-13T19:07:57.232Z,7.55
2018-07-13T19:15:03.675Z,4.97
2018-07-13T19:18:36.941Z,5.30
2018-07-13T19:22:09.443Z,6.08
2018-07-13T19:25:37.335Z,5.10
2018-07-13T19:29:02.131Z,5.25
2018-07-13T19:32:26.570Z,5.40
2018-07-13T19:35:52.283Z,5.15
2018-07-13T19:39:18.040Z,5.17
2018-07-13T19:42:44.720Z,6.83
2018-07-13T19:46:11.801Z,6.62
2018-07-13T19:49:37.301Z,5.00
2018-07-13T19:53:02.827Z,7.45
2018-07-13T19:56:27.272Z,6.72
2018-07-13T20:00:08.966Z,6.15
2018-07-13T20:03:33.414Z,7.22
2018-07-13T20:06:57.894Z,8.23
2018-07-13T20:10:22.443Z,6.05
2018-07-13T20:13:46.872Z,5.35
2018-07-13T20:17:11.337Z,5.10
2018-07-13T20:20:35.730Z,7.72
2018-07-13T20:24:00.151Z,7.35
2018-07-13T20:27:24.586Z,5.78
2018-07-13T20:30:49.031Z,7.00
2018-07-13T20:34:13.633Z,7.03
2018-07-13T20:37:38.062Z,6.67
2018-07-13T20:41:02.489Z,6.33
2018-07-13T20:44:26.948Z,6.45
2018-07-13T20:47:51.422Z,5.60
2018-07-13T20:51:15.880Z,6.10
2018-07-13T20:54:40.312Z,9.03
2018-07-13T20:58:04.798Z,8.95
2018-07-13T21:01:29.236Z,5.72
2018-07-13T21:04:53.738Z,5.47
2018-07-13T21:08:18.200Z,7.62
2018-07-13T21:11:42.645Z,8.55
2018-07-13T21:15:07.136Z,5.17
2018-07-13T21:18:31.559Z,5.70
2018-07-13T21:21:55.999Z,5.85
2018-07-13T21:25:20.434Z,22.98
2018-07-13T21:28:44.854Z,7.80
2018-07-13T21:32:09.319Z,5.42
2018-07-13T21:35:33.723Z,6.58
2018-07-13T21:38:58.200Z,6.85
2018-07-13T21:42:22.648Z,5.53
2018-07-13T21:45:47.079Z,8.43
2018-07-13T21:49:11.555Z,6.53
2018-07-13T21:52:36.098Z,6.37
2018-07-13T21:56:00.558Z,6.20
2018-07-13T21:59:25.076Z,6.70
2018-07-13T22:02:49.567Z,6.22
2018-07-13T22:06:14.004Z,7.28
2018-07-13T22:09:38.449Z,8.65
2018-07-13T22:13:02.920Z,7.10
2018-07-13T22:16:27.399Z,8.13
2018-07-13T22:19:51.822Z,11.90
2018-07-13T22:23:16.361Z,11.63
2018-07-13T22:26:40.821Z,9.00
2018-07-13T22:30:05.693Z,10.28
2018-07-13T22:33:30.129Z,11.25
2018-07-13T22:36:54.628Z,9.73
2018-07-13T22:40:19.135Z,7.28
2018-07-13T22:43:43.514Z,8.28
2018-07-13T22:47:07.953Z,8.15
2018-07-13T22:50:32.370Z,9.30
2018-07-13T22:53:56.788Z,9.28
2018-07-13T22:57:21.224Z,8.13
2018-07-13T23:00:45.594Z,7.90
2018-07-13T23:04:10.039Z,9.40
2018-07-13T23:07:34.431Z,15.45
2018-07-13T23:10:59.513Z,9.05
2018-07-13T23:14:23.922Z,8.60
2018-07-13T23:17:48.334Z,11.48
2018-07-13T23:21:12.773Z,10.63
2018-07-13T23:24:37.212Z,10.58
2018-07-13T23:28:01.636Z,7.92
2018-07-13T23:31:26.067Z,10.95
2018-07-13T23:34:50.558Z,10.48
2018-07-13T23:38:15.059Z,8.78
2018-07-13T23:41:39.494Z,9.78
2018-07-13T23:45:03.951Z,10.25
2018-07-13T23:48:28.361Z,9.73
2018-07-13T23:51:52.783Z,10.55
2018-07-13T23:55:17.215Z,8.88
2018-07-13T23:58:41.732Z,8.98
